sensor_id;sensor_type;location;lat;lon;timestamp;temperature;humidity
13203;DHT22;6666;51.626;7.530;2023-05-29T00:02:26;13.50;99.90
13203;DHT22;6666;51.626;7.530;2023-05-29T00:04:55;13.40;99.90
13203;DHT22;6666;51.626;7.530;2023-05-29T00:07:24;13.40;99.90
13203;DHT22;6666;51.626;7.530;2023-05-29T00:09:52;13.30;99.90
13203;DHT22;6666;51.626;7.530;2023-05-29T00:12:20;13.20;99.90
13203;DHT22;6666;51.626;7.530;2023-05-29T00:14:49;13.20;99.90
13203;DHT22;6666;51.626;7.530;2023-05-29T00:17:17;13.20;99.90
13203;DHT22;6666;51.626;7.530;2023-05-29T00:19:45;13.20;99.90
13203;DHT22;6666;51.626;7.530;2023-05-29T00:22:13;13.20;99.90
13203;DHT22;6666;51.626;7.530;2023-05-29T00:24:43;13.20;99.90
13203;DHT22;6666;51.626;7.530;2023-05-29T00:27:12;13.20;99.90
13203;DHT22;6666;51.626;7.530;2023-05-29T00:29:40;13.20;99.90
13203;DHT22;6666;51.626;7.530;2023-05-29T00:32:08;13.10;99.90
13203;DHT22;6666;51.626;7.530;2023-05-29T00:34:36;13.00;99.90
13203;DHT22;6666;51.626;7.530;2023-05-29T00:37:05;13.00;99.90
13203;DHT22;6666;51.626;7.530;2023-05-29T00:39:33;12.90;99.90
13203;DHT22;6666;51.626;7.530;2023-05-29T00:42:03;12.80;99.90
13203;DHT22;6666;51.626;7.530;2023-05-29T00:44:31;12.70;99.90
13203;DHT22;6666;51.626;7.530;2023-05-29T00:46:59;12.60;99.90
13203;DHT22;6666;51.626;7.530;2023-05-29T00:49:27;12.50;99.90
13203;DHT22;6666;51.626;7.530;2023-05-29T00:51:56;12.50;99.90
13203;DHT22;6666;51.626;7.530;2023-05-29T00:54:26;12.50;99.90
13203;DHT22;6666;51.626;7.530;2023-05-29T00:56:57;12.50;99.90
13203;DHT22;6666;51.626;7.530;2023-05-29T00:59:30;12.50;99.90
13203;DHT22;6666;51.626;7.530;2023-05-29T01:01:59;12.40;99.90
13203;DHT22;6666;51.626;7.530;2023-05-29T01:04:29;12.40;99.90
13203;DHT22;6666;51.626;7.530;2023-05-29T01:07:00;12.40;99.90
13203;DHT22;6666;51.626;7.530;2023-05-29T01:09:29;12.20;99.90
13203;DHT22;6666;51.626;7.530;2023-05-29T01:12:01;12.20;99.90
13203;DHT22;6666;51.626;7.530;2023-05-29T01:14:42;12.00;99.90
13203;DHT22;6666;51.626;7.530;2023-05-29T01:17:22;12.10;99.90
13203;DHT22;6666;51.626;7.530;2023-05-29T01:20:09;11.90;99.90
13203;DHT22;6666;51.626;7.530;2023-05-29T01:22:54;11.90;99.90
13203;DHT22;6666;51.626;7.530;2023-05-29T01:25:35;11.90;99.90
13203;DHT22;6666;51.626;7.530;2023-05-29T01:28:13;11.80;99.90
13203;DHT22;6666;51.626;7.530;2023-05-29T01:30:43;11.70;99.90
13203;DHT22;6666;51.626;7.530;2023-05-29T01:33:12;11.60;99.90
13203;DHT22;6666;51.626;7.530;2023-05-29T01:35:40;11.60;99.90
13203;DHT22;6666;51.626;7.530;2023-05-29T01:38:08;11.50;99.90
13203;DHT22;6666;51.626;7.530;2023-05-29T01:40:36;11.50;99.90
13203;DHT22;6666;51.626;7.530;2023-05-29T01:43:05;11.50;99.90
13203;DHT22;6666;51.626;7.530;2023-05-29T01:45:35;11.50;99.90
13203;DHT22;6666;51.626;7.530;2023-05-29T01:48:06;11.40;99.90
13203;DHT22;6666;51.626;7.530;2023-05-29T01:50:35;11.50;99.90
13203;DHT22;6666;51.626;7.530;2023-05-29T01:53:03;11.50;99.90
13203;DHT22;6666;51.626;7.530;2023-05-29T01:55:31;11.40;99.90
13203;DHT22;6666;51.626;7.530;2023-05-29T01:58:00;11.40;99.90
13203;DHT22;6666;51.626;7.530;2023-05-29T02:00:30;11.30;99.90
13203;DHT22;6666;51.626;7.530;2023-05-29T02:03:00;11.40;99.90
13203;DHT22;6666;51.626;7.530;2023-05-29T02:05:29;11.30;99.90
13203;DHT22;6666;51.626;7.530;2023-05-29T02:07:57;11.30;99.90
13203;DHT22;6666;51.626;7.530;2023-05-29T02:10:25;11.40;99.90
13203;DHT22;6666;51.626;7.530;2023-05-29T02:12:53;11.30;99.90
13203;DHT22;6666;51.626;7.530;2023-05-29T02:15:21;11.20;99.90
13203;DHT22;6666;51.626;7.530;2023-05-29T02:17:50;11.10;99.90
13203;DHT22;6666;51.626;7.530;2023-05-29T02:20:20;11.20;99.90
13203;DHT22;6666;51.626;7.530;2023-05-29T02:22:48;11.20;99.90
13203;DHT22;6666;51.626;7.530;2023-05-29T02:25:16;11.20;99.90
13203;DHT22;6666;51.626;7.530;2023-05-29T02:27:45;11.00;99.90
13203;DHT22;6666;51.626;7.530;2023-05-29T02:30:13;10.90;99.90
13203;DHT22;6666;51.626;7.530;2023-05-29T02:32:41;11.00;99.90
13203;DHT22;6666;51.626;7.530;2023-05-29T02:35:10;10.90;99.90
13203;DHT22;6666;51.626;7.530;2023-05-29T02:37:41;11.00;99.90
13203;DHT22;6666;51.626;7.530;2023-05-29T02:40:10;11.00;99.90
13203;DHT22;6666;51.626;7.530;2023-05-29T02:42:38;11.00;99.90
13203;DHT22;6666;51.626;7.530;2023-05-29T02:45:07;11.00;99.90
13203;DHT22;6666;51.626;7.530;2023-05-29T02:47:36;11.00;99.90
13203;DHT22;6666;51.626;7.530;2023-05-29T02:50:05;10.90;99.90
13203;DHT22;6666;51.626;7.530;2023-05-29T02:52:35;10.90;99.90
13203;DHT22;6666;51.626;7.530;2023-05-29T02:55:06;10.90;99.90
13203;DHT22;6666;51.626;7.530;2023-05-29T02:57:34;10.90;99.90
13203;DHT22;6666;51.626;7.530;2023-05-29T03:00:03;10.80;99.90
13203;DHT22;6666;51.626;7.530;2023-05-29T03:02:34;10.90;99.90
13203;DHT22;6666;51.626;7.530;2023-05-29T03:05:03;10.90;99.90
13203;DHT22;6666;51.626;7.530;2023-05-29T03:07:32;10.90;99.90
13203;DHT22;6666;51.626;7.530;2023-05-29T03:10:00;10.80;99.90
13203;DHT22;6666;51.626;7.530;2023-05-29T03:12:29;10.70;99.90
13203;DHT22;6666;51.626;7.530;2023-05-29T03:14:58;10.60;99.90
13203;DHT22;6666;51.626;7.530;2023-05-29T03:17:28;10.60;99.90
13203;DHT22;6666;51.626;7.530;2023-05-29T03:19:57;10.70;99.90
13203;DHT22;6666;51.626;7.530;2023-05-29T03:22:26;10.70;99.90
13203;DHT22;6666;51.626;7.530;2023-05-29T03:24:54;10.60;99.90
13203;DHT22;6666;51.626;7.530;2023-05-29T03:27:22;10.50;99.90
13203;DHT22;6666;51.626;7.530;2023-05-29T03:30:00;10.60;99.90
13203;DHT22;6666;51.626;7.530;2023-05-29T03:32:30;10.70;99.90
13203;DHT22;6666;51.626;7.530;2023-05-29T03:34:59;10.80;99.90
13203;DHT22;6666;51.626;7.530;2023-05-29T03:37:28;10.80;99.90
13203;DHT22;6666;51.626;7.530;2023-05-29T03:39:56;10.80;99.90
13203;DHT22;6666;51.626;7.530;2023-05-29T03:42:24;10.80;99.90
13203;DHT22;6666;51.626;7.530;2023-05-29T03:44:52;10.70;99.90
13203;DHT22;6666;51.626;7.530;2023-05-29T03:47:24;10.80;99.90
13203;DHT22;6666;51.626;7.530;2023-05-29T03:49:53;10.90;99.90
13203;DHT22;6666;51.626;7.530;2023-05-29T03:52:21;11.00;99.90
13203;DHT22;6666;51.626;7.530;2023-05-29T03:54:50;10.90;99.90
13203;DHT22;6666;51.626;7.530;2023-05-29T03:57:18;10.70;99.90
13203;DHT22;6666;51.626;7.530;2023-05-29T03:59:47;10.70;99.90
13203;DHT22;6666;51.626;7.530;2023-05-29T04:02:16;11.20;99.90
13203;DHT22;6666;51.626;7.530;2023-05-29T04:04:47;11.70;99.90
13203;DHT22;6666;51.626;7.530;2023-05-29T04:07:16;12.10;99.90
13203;DHT22;6666;51.626;7.530;2023-05-29T04:09:45;12.60;99.90
13203;DHT22;6666;51.626;7.530;2023-05-29T04:12:13;13.10;99.90
13203;DHT22;6666;51.626;7.530;2023-05-29T04:14:42;13.20;99.90
13203;DHT22;6666;51.626;7.530;2023-05-29T04:17:12;13.50;99.90
13203;DHT22;6666;51.626;7.530;2023-05-29T04:19:42;13.80;99.90
13203;DHT22;6666;51.626;7.530;2023-05-29T04:22:12;13.90;99.90
13203;DHT22;6666;51.626;7.530;2023-05-29T04:24:40;13.80;99.90
13203;DHT22;6666;51.626;7.530;2023-05-29T04:27:10;14.10;99.90
13203;DHT22;6666;51.626;7.530;2023-05-29T04:29:42;14.40;99.90
13203;DHT22;6666;51.626;7.530;2023-05-29T04:32:10;14.90;99.90
13203;DHT22;6666;51.626;7.530;2023-05-29T04:34:38;14.60;99.90
13203;DHT22;6666;51.626;7.530;2023-05-29T04:37:07;15.00;99.90
13203;DHT22;6666;51.626;7.530;2023-05-29T04:39:38;15.10;99.90
13203;DHT22;6666;51.626;7.530;2023-05-29T04:42:07;15.20;99.90
13203;DHT22;6666;51.626;7.530;2023-05-29T04:44:37;15.70;99.90
13203;DHT22;6666;51.626;7.530;2023-05-29T04:47:05;15.60;99.90
13203;DHT22;6666;51.626;7.530;2023-05-29T04:49:34;16.50;99.90
13203;DHT22;6666;51.626;7.530;2023-05-29T04:52:05;16.80;99.90
13203;DHT22;6666;51.626;7.530;2023-05-29T04:54:34;16.90;99.90
13203;DHT22;6666;51.626;7.530;2023-05-29T04:57:04;16.80;99.90
13203;DHT22;6666;51.626;7.530;2023-05-29T04:59:34;17.40;99.90
13203;DHT22;6666;51.626;7.530;2023-05-29T05:02:04;16.40;99.90
13203;DHT22;6666;51.626;7.530;2023-05-29T05:04:34;16.20;99.90
13203;DHT22;6666;51.626;7.530;2023-05-29T05:07:05;17.00;99.90
13203;DHT22;6666;51.626;7.530;2023-05-29T05:09:33;17.20;99.90
13203;DHT22;6666;51.626;7.530;2023-05-29T05:12:04;16.80;99.90
13203;DHT22;6666;51.626;7.530;2023-05-29T05:14:33;17.50;99.90
13203;DHT22;6666;51.626;7.530;2023-05-29T05:17:01;16.90;99.90
13203;DHT22;6666;51.626;7.530;2023-05-29T05:19:30;17.10;99.90
13203;DHT22;6666;51.626;7.530;2023-05-29T05:21:59;17.40;99.90
13203;DHT22;6666;51.626;7.530;2023-05-29T05:24:27;18.00;99.90
13203;DHT22;6666;51.626;7.530;2023-05-29T05:26:56;18.10;99.90
13203;DHT22;6666;51.626;7.530;2023-05-29T05:29:26;18.20;99.90
13203;DHT22;6666;51.626;7.530;2023-05-29T05:31:54;17.90;99.90
13203;DHT22;6666;51.626;7.530;2023-05-29T05:34:23;17.30;99.90
13203;DHT22;6666;51.626;7.530;2023-05-29T05:36:51;17.60;99.90
13203;DHT22;6666;51.626;7.530;2023-05-29T05:39:19;17.00;99.90
13203;DHT22;6666;51.626;7.530;2023-05-29T05:41:48;17.60;99.90
13203;DHT22;6666;51.626;7.530;2023-05-29T05:44:31;17.90;99.90
13203;DHT22;6666;51.626;7.530;2023-05-29T05:47:03;17.90;99.90
13203;DHT22;6666;51.626;7.530;2023-05-29T05:49:31;17.90;99.90
13203;DHT22;6666;51.626;7.530;2023-05-29T05:51:59;18.60;99.90
13203;DHT22;6666;51.626;7.530;2023-05-29T05:54:28;18.00;99.90
13203;DHT22;6666;51.626;7.530;2023-05-29T05:56:56;18.00;99.90
13203;DHT22;6666;51.626;7.530;2023-05-29T05:59:24;17.30;99.90
13203;DHT22;6666;51.626;7.530;2023-05-29T06:01:55;17.20;99.90
13203;DHT22;6666;51.626;7.530;2023-05-29T06:04:23;16.50;99.90
13203;DHT22;6666;51.626;7.530;2023-05-29T06:06:51;16.00;99.90
13203;DHT22;6666;51.626;7.530;2023-05-29T06:09:20;16.00;99.90
13203;DHT22;6666;51.626;7.530;2023-05-29T06:11:49;16.10;99.90
13203;DHT22;6666;51.626;7.530;2023-05-29T06:14:17;16.30;99.90
13203;DHT22;6666;51.626;7.530;2023-05-29T06:16:45;16.40;99.90
13203;DHT22;6666;51.626;7.530;2023-05-29T06:19:15;16.50;99.90
13203;DHT22;6666;51.626;7.530;2023-05-29T06:22:01;16.20;99.90
13203;DHT22;6666;51.626;7.530;2023-05-29T06:24:32;15.80;99.90
13203;DHT22;6666;51.626;7.530;2023-05-29T06:27:00;15.30;99.90
13203;DHT22;6666;51.626;7.530;2023-05-29T06:29:28;15.50;99.90
13203;DHT22;6666;51.626;7.530;2023-05-29T06:31:57;15.40;99.90
13203;DHT22;6666;51.626;7.530;2023-05-29T06:34:27;15.30;99.90
13203;DHT22;6666;51.626;7.530;2023-05-29T06:36:55;15.20;99.90
13203;DHT22;6666;51.626;7.530;2023-05-29T06:39:23;15.40;99.90
13203;DHT22;6666;51.626;7.530;2023-05-29T06:41:52;15.40;99.90
13203;DHT22;6666;51.626;7.530;2023-05-29T06:44:20;16.00;99.90
13203;DHT22;6666;51.626;7.530;2023-05-29T06:46:48;15.50;99.90
13203;DHT22;6666;51.626;7.530;2023-05-29T06:49:17;15.50;99.90
13203;DHT22;6666;51.626;7.530;2023-05-29T06:51:46;15.30;99.90
13203;DHT22;6666;51.626;7.530;2023-05-29T06:54:22;15.00;99.90
13203;DHT22;6666;51.626;7.530;2023-05-29T06:56:51;14.90;99.90
13203;DHT22;6666;51.626;7.530;2023-05-29T06:59:36;14.70;99.90
13203;DHT22;6666;51.626;7.530;2023-05-29T07:02:05;15.00;99.90
13203;DHT22;6666;51.626;7.530;2023-05-29T07:04:35;15.30;99.90
13203;DHT22;6666;51.626;7.530;2023-05-29T07:07:05;14.80;99.90
13203;DHT22;6666;51.626;7.530;2023-05-29T07:09:35;15.20;99.90
13203;DHT22;6666;51.626;7.530;2023-05-29T07:12:04;15.30;99.90
13203;DHT22;6666;51.626;7.530;2023-05-29T07:14:34;14.90;99.90
13203;DHT22;6666;51.626;7.530;2023-05-29T07:17:02;15.30;99.90
13203;DHT22;6666;51.626;7.530;2023-05-29T07:19:30;15.10;99.90
13203;DHT22;6666;51.626;7.530;2023-05-29T07:22:01;15.10;99.90
13203;DHT22;6666;51.626;7.530;2023-05-29T07:24:31;15.20;99.90
13203;DHT22;6666;51.626;7.530;2023-05-29T07:27:02;15.30;99.90
13203;DHT22;6666;51.626;7.530;2023-05-29T07:29:31;15.00;99.90
13203;DHT22;6666;51.626;7.530;2023-05-29T07:32:00;15.10;99.90
13203;DHT22;6666;51.626;7.530;2023-05-29T07:34:29;15.40;99.90
13203;DHT22;6666;51.626;7.530;2023-05-29T07:37:00;15.40;99.90
13203;DHT22;6666;51.626;7.530;2023-05-29T07:39:32;15.50;99.90
13203;DHT22;6666;51.626;7.530;2023-05-29T07:42:10;15.40;99.90
13203;DHT22;6666;51.626;7.530;2023-05-29T07:44:41;15.60;99.90
13203;DHT22;6666;51.626;7.530;2023-05-29T07:47:09;15.50;99.90
13203;DHT22;6666;51.626;7.530;2023-05-29T07:49:45;15.40;99.90
13203;DHT22;6666;51.626;7.530;2023-05-29T07:52:13;15.50;99.90
13203;DHT22;6666;51.626;7.530;2023-05-29T07:54:43;15.50;99.90
13203;DHT22;6666;51.626;7.530;2023-05-29T07:57:12;15.40;99.90
13203;DHT22;6666;51.626;7.530;2023-05-29T07:59:43;15.40;99.90
13203;DHT22;6666;51.626;7.530;2023-05-29T08:02:12;15.50;99.90
13203;DHT22;6666;51.626;7.530;2023-05-29T08:04:59;15.50;99.90
13203;DHT22;6666;51.626;7.530;2023-05-29T08:07:28;15.30;99.90
13203;DHT22;6666;51.626;7.530;2023-05-29T08:09:58;15.20;99.90
13203;DHT22;6666;51.626;7.530;2023-05-29T08:12:27;15.40;99.90
13203;DHT22;6666;51.626;7.530;2023-05-29T08:14:57;15.50;99.90
13203;DHT22;6666;51.626;7.530;2023-05-29T08:17:25;15.50;99.90
13203;DHT22;6666;51.626;7.530;2023-05-29T08:19:53;15.30;99.90
13203;DHT22;6666;51.626;7.530;2023-05-29T08:22:28;15.60;99.90
13203;DHT22;6666;51.626;7.530;2023-05-29T08:24:57;15.60;99.90
13203;DHT22;6666;51.626;7.530;2023-05-29T08:27:26;16.00;99.90
13203;DHT22;6666;51.626;7.530;2023-05-29T08:29:54;15.80;99.90
13203;DHT22;6666;51.626;7.530;2023-05-29T08:32:22;15.80;99.90
13203;DHT22;6666;51.626;7.530;2023-05-29T08:34:52;15.90;99.90
13203;DHT22;6666;51.626;7.530;2023-05-29T08:37:21;15.80;99.90
13203;DHT22;6666;51.626;7.530;2023-05-29T08:39:49;15.70;99.90
13203;DHT22;6666;51.626;7.530;2023-05-29T08:42:21;16.00;99.90
13203;DHT22;6666;51.626;7.530;2023-05-29T08:44:51;15.80;99.90
13203;DHT22;6666;51.626;7.530;2023-05-29T08:47:23;15.80;99.90
13203;DHT22;6666;51.626;7.530;2023-05-29T08:49:53;15.80;99.90
13203;DHT22;6666;51.626;7.530;2023-05-29T08:52:23;16.10;99.90
13203;DHT22;6666;51.626;7.530;2023-05-29T08:54:52;16.20;99.90
13203;DHT22;6666;51.626;7.530;2023-05-29T08:57:22;16.10;99.90
13203;DHT22;6666;51.626;7.530;2023-05-29T08:59:51;16.40;99.90
13203;DHT22;6666;51.626;7.530;2023-05-29T09:02:20;16.10;99.90
13203;DHT22;6666;51.626;7.530;2023-05-29T09:04:48;16.20;99.90
13203;DHT22;6666;51.626;7.530;2023-05-29T09:07:17;16.50;99.90
13203;DHT22;6666;51.626;7.530;2023-05-29T09:09:47;16.70;99.90
13203;DHT22;6666;51.626;7.530;2023-05-29T09:12:16;16.80;99.90
13203;DHT22;6666;51.626;7.530;2023-05-29T09:14:46;16.60;99.90
13203;DHT22;6666;51.626;7.530;2023-05-29T09:17:15;16.70;99.90
13203;DHT22;6666;51.626;7.530;2023-05-29T09:19:43;16.50;99.90
13203;DHT22;6666;51.626;7.530;2023-05-29T09:22:14;16.50;99.90
13203;DHT22;6666;51.626;7.530;2023-05-29T09:24:46;16.70;99.90
13203;DHT22;6666;51.626;7.530;2023-05-29T09:27:15;16.70;99.90
13203;DHT22;6666;51.626;7.530;2023-05-29T09:29:45;16.70;99.90
13203;DHT22;6666;51.626;7.530;2023-05-29T09:32:15;16.70;99.90
13203;DHT22;6666;51.626;7.530;2023-05-29T09:34:44;16.60;99.90
13203;DHT22;6666;51.626;7.530;2023-05-29T09:37:13;16.60;99.90
13203;DHT22;6666;51.626;7.530;2023-05-29T09:39:45;16.90;99.90
13203;DHT22;6666;51.626;7.530;2023-05-29T09:42:14;17.00;99.90
13203;DHT22;6666;51.626;7.530;2023-05-29T09:44:44;16.80;99.90
13203;DHT22;6666;51.626;7.530;2023-05-29T09:47:16;16.90;99.90
13203;DHT22;6666;51.626;7.530;2023-05-29T09:49:45;16.80;99.90
13203;DHT22;6666;51.626;7.530;2023-05-29T09:52:14;16.80;99.90
13203;DHT22;6666;51.626;7.530;2023-05-29T09:54:44;16.90;99.90
13203;DHT22;6666;51.626;7.530;2023-05-29T09:57:15;17.10;99.90
13203;DHT22;6666;51.626;7.530;2023-05-29T09:59:44;17.40;99.90
13203;DHT22;6666;51.626;7.530;2023-05-29T10:02:17;17.60;99.90
13203;DHT22;6666;51.626;7.530;2023-05-29T10:04:46;17.40;99.90
13203;DHT22;6666;51.626;7.530;2023-05-29T10:07:25;17.20;99.90
13203;DHT22;6666;51.626;7.530;2023-05-29T10:09:59;17.00;99.90
13203;DHT22;6666;51.626;7.530;2023-05-29T10:12:29;17.40;99.90
13203;DHT22;6666;51.626;7.530;2023-05-29T10:15:01;17.60;99.90
13203;DHT22;6666;51.626;7.530;2023-05-29T10:17:33;17.40;99.90
13203;DHT22;6666;51.626;7.530;2023-05-29T10:20:05;17.80;99.90
13203;DHT22;6666;51.626;7.530;2023-05-29T10:22:36;17.70;99.90
13203;DHT22;6666;51.626;7.530;2023-05-29T10:25:06;17.60;99.90
13203;DHT22;6666;51.626;7.530;2023-05-29T10:27:35;17.60;99.90
13203;DHT22;6666;51.626;7.530;2023-05-29T10:30:09;17.70;99.90
13203;DHT22;6666;51.626;7.530;2023-05-29T10:32:44;17.70;99.90
13203;DHT22;6666;51.626;7.530;2023-05-29T10:35:25;17.40;99.90
13203;DHT22;6666;51.626;7.530;2023-05-29T10:37:59;17.60;99.90
13203;DHT22;6666;51.626;7.530;2023-05-29T10:40:30;17.70;99.90
13203;DHT22;6666;51.626;7.530;2023-05-29T10:42:58;17.70;99.90
13203;DHT22;6666;51.626;7.530;2023-05-29T10:45:48;17.60;99.90
13203;DHT22;6666;51.626;7.530;2023-05-29T10:48:38;17.70;99.90
13203;DHT22;6666;51.626;7.530;2023-05-29T10:51:08;17.80;99.90
13203;DHT22;6666;51.626;7.530;2023-05-29T10:53:40;17.80;99.90
13203;DHT22;6666;51.626;7.530;2023-05-29T10:56:15;18.00;99.90
13203;DHT22;6666;51.626;7.530;2023-05-29T10:58:52;18.00;99.90
13203;DHT22;6666;51.626;7.530;2023-05-29T11:01:22;18.20;99.90
13203;DHT22;6666;51.626;7.530;2023-05-29T11:03:54;18.00;99.90
13203;DHT22;6666;51.626;7.530;2023-05-29T11:06:42;18.00;99.90
13203;DHT22;6666;51.626;7.530;2023-05-29T11:09:26;18.20;99.90
13203;DHT22;6666;51.626;7.530;2023-05-29T11:12:15;18.40;99.90
13203;DHT22;6666;51.626;7.530;2023-05-29T11:14:56;18.10;99.90
13203;DHT22;6666;51.626;7.530;2023-05-29T11:17:43;18.00;99.90
13203;DHT22;6666;51.626;7.530;2023-05-29T11:20:31;18.20;99.90
13203;DHT22;6666;51.626;7.530;2023-05-29T11:23:04;18.30;99.90
13203;DHT22;6666;51.626;7.530;2023-05-29T11:25:36;18.10;99.90
13203;DHT22;6666;51.626;7.530;2023-05-29T11:28:05;18.10;99.90
13203;DHT22;6666;51.626;7.530;2023-05-29T11:30:46;17.90;99.90
13203;DHT22;6666;51.626;7.530;2023-05-29T11:33:24;18.00;99.90
13203;DHT22;6666;51.626;7.530;2023-05-29T11:35:59;18.50;99.90
13203;DHT22;6666;51.626;7.530;2023-05-29T11:38:28;18.70;99.90
13203;DHT22;6666;51.626;7.530;2023-05-29T11:40:57;18.80;99.90
13203;DHT22;6666;51.626;7.530;2023-05-29T11:43:25;18.60;99.90
13203;DHT22;6666;51.626;7.530;2023-05-29T11:45:54;18.60;99.90
13203;DHT22;6666;51.626;7.530;2023-05-29T11:48:22;18.50;99.90
13203;DHT22;6666;51.626;7.530;2023-05-29T11:50:51;18.60;99.90
13203;DHT22;6666;51.626;7.530;2023-05-29T11:53:21;18.50;99.90
13203;DHT22;6666;51.626;7.530;2023-05-29T11:55:49;18.40;99.90
13203;DHT22;6666;51.626;7.530;2023-05-29T11:58:17;18.20;99.90
13203;DHT22;6666;51.626;7.530;2023-05-29T12:00:47;17.90;99.90
13203;DHT22;6666;51.626;7.530;2023-05-29T12:03:17;18.20;99.90
13203;DHT22;6666;51.626;7.530;2023-05-29T12:05:47;18.40;99.90
13203;DHT22;6666;51.626;7.530;2023-05-29T12:08:22;18.50;99.90
13203;DHT22;6666;51.626;7.530;2023-05-29T12:10:52;18.70;99.90
13203;DHT22;6666;51.626;7.530;2023-05-29T12:13:21;18.80;99.90
13203;DHT22;6666;51.626;7.530;2023-05-29T12:15:53;18.60;99.90
13203;DHT22;6666;51.626;7.530;2023-05-29T12:18:22;18.60;99.90
13203;DHT22;6666;51.626;7.530;2023-05-29T12:20:56;18.80;99.90
13203;DHT22;6666;51.626;7.530;2023-05-29T12:23:26;18.90;99.90
13203;DHT22;6666;51.626;7.530;2023-05-29T12:25:55;18.80;99.90
13203;DHT22;6666;51.626;7.530;2023-05-29T12:28:25;18.90;99.90
13203;DHT22;6666;51.626;7.530;2023-05-29T12:30:58;19.00;99.90
13203;DHT22;6666;51.626;7.530;2023-05-29T12:33:29;19.20;99.90
13203;DHT22;6666;51.626;7.530;2023-05-29T12:36:03;18.80;99.90
13203;DHT22;6666;51.626;7.530;2023-05-29T12:38:33;19.10;99.90
13203;DHT22;6666;51.626;7.530;2023-05-29T12:41:03;19.00;99.90
13203;DHT22;6666;51.626;7.530;2023-05-29T12:43:31;19.20;99.90
13203;DHT22;6666;51.626;7.530;2023-05-29T12:45:59;19.10;99.90
13203;DHT22;6666;51.626;7.530;2023-05-29T12:48:27;19.40;99.90
13203;DHT22;6666;51.626;7.530;2023-05-29T12:50:55;19.30;99.90
13203;DHT22;6666;51.626;7.530;2023-05-29T12:53:28;19.00;99.90
13203;DHT22;6666;51.626;7.530;2023-05-29T12:55:59;19.30;99.90
13203;DHT22;6666;51.626;7.530;2023-05-29T12:58:30;19.30;99.90
13203;DHT22;6666;51.626;7.530;2023-05-29T13:00:59;19.20;99.90
13203;DHT22;6666;51.626;7.530;2023-05-29T13:03:27;18.90;99.90
13203;DHT22;6666;51.626;7.530;2023-05-29T13:05:55;19.00;99.90
13203;DHT22;6666;51.626;7.530;2023-05-29T13:08:25;19.10;99.90
13203;DHT22;6666;51.626;7.530;2023-05-29T13:10:53;19.30;99.90
13203;DHT22;6666;51.626;7.530;2023-05-29T13:13:22;19.50;99.90
13203;DHT22;6666;51.626;7.530;2023-05-29T13:15:51;19.20;99.90
13203;DHT22;6666;51.626;7.530;2023-05-29T13:18:19;19.50;99.90
13203;DHT22;6666;51.626;7.530;2023-05-29T13:20:47;20.70;99.90
13203;DHT22;6666;51.626;7.530;2023-05-29T13:23:15;23.50;98.50
13203;DHT22;6666;51.626;7.530;2023-05-29T13:25:43;24.50;94.70
13203;DHT22;6666;51.626;7.530;2023-05-29T13:28:12;22.70;95.40
13203;DHT22;6666;51.626;7.530;2023-05-29T13:30:42;23.60;95.90
13203;DHT22;6666;51.626;7.530;2023-05-29T13:33:10;23.00;93.40
13203;DHT22;6666;51.626;7.530;2023-05-29T13:35:38;22.70;93.80
13203;DHT22;6666;51.626;7.530;2023-05-29T13:38:07;22.50;93.40
13203;DHT22;6666;51.626;7.530;2023-05-29T13:40:35;21.80;94.40
13203;DHT22;6666;51.626;7.530;2023-05-29T13:43:03;21.60;93.70
13203;DHT22;6666;51.626;7.530;2023-05-29T13:45:31;21.30;94.50
13203;DHT22;6666;51.626;7.530;2023-05-29T13:48:01;21.10;95.50
13203;DHT22;6666;51.626;7.530;2023-05-29T13:50:29;20.50;95.60
13203;DHT22;6666;51.626;7.530;2023-05-29T13:52:57;20.80;96.70
13203;DHT22;6666;51.626;7.530;2023-05-29T13:55:27;20.50;96.40
13203;DHT22;6666;51.626;7.530;2023-05-29T13:57:55;20.00;96.60
13203;DHT22;6666;51.626;7.530;2023-05-29T14:00:24;19.80;97.00
13203;DHT22;6666;51.626;7.530;2023-05-29T14:02:53;19.40;96.10
13203;DHT22;6666;51.626;7.530;2023-05-29T14:05:23;19.40;96.60
13203;DHT22;6666;51.626;7.530;2023-05-29T14:07:51;19.40;96.20
13203;DHT22;6666;51.626;7.530;2023-05-29T14:10:19;19.50;97.20
13203;DHT22;6666;51.626;7.530;2023-05-29T14:12:47;19.40;97.60
13203;DHT22;6666;51.626;7.530;2023-05-29T14:15:16;19.60;98.10
13203;DHT22;6666;51.626;7.530;2023-05-29T14:17:44;19.60;97.20
13203;DHT22;6666;51.626;7.530;2023-05-29T14:20:12;19.70;97.40
13203;DHT22;6666;51.626;7.530;2023-05-29T14:22:42;19.70;96.70
13203;DHT22;6666;51.626;7.530;2023-05-29T14:25:10;19.60;96.70
13203;DHT22;6666;51.626;7.530;2023-05-29T14:27:38;19.60;96.00
13203;DHT22;6666;51.626;7.530;2023-05-29T14:30:07;19.50;96.60
13203;DHT22;6666;51.626;7.530;2023-05-29T14:32:35;19.40;95.40
13203;DHT22;6666;51.626;7.530;2023-05-29T14:35:03;19.40;96.50
13203;DHT22;6666;51.626;7.530;2023-05-29T14:37:32;19.40;95.70
13203;DHT22;6666;51.626;7.530;2023-05-29T14:40:01;19.40;95.80
13203;DHT22;6666;51.626;7.530;2023-05-29T14:42:30;19.40;96.50
13203;DHT22;6666;51.626;7.530;2023-05-29T14:44:59;19.60;97.50
13203;DHT22;6666;51.626;7.530;2023-05-29T14:47:27;19.40;96.70
13203;DHT22;6666;51.626;7.530;2023-05-29T14:49:56;19.50;96.50
13203;DHT22;6666;51.626;7.530;2023-05-29T14:52:24;19.60;96.20
13203;DHT22;6666;51.626;7.530;2023-05-29T14:54:52;19.50;95.70
13203;DHT22;6666;51.626;7.530;2023-05-29T14:57:21;19.50;95.50
13203;DHT22;6666;51.626;7.530;2023-05-29T14:59:49;19.30;95.20
13203;DHT22;6666;51.626;7.530;2023-05-29T15:02:18;19.40;95.40
13203;DHT22;6666;51.626;7.530;2023-05-29T15:04:46;19.40;94.90
13203;DHT22;6666;51.626;7.530;2023-05-29T15:07:15;19.50;96.00
13203;DHT22;6666;51.626;7.530;2023-05-29T15:09:43;19.50;96.80
13203;DHT22;6666;51.626;7.530;2023-05-29T15:12:11;19.50;95.20
13203;DHT22;6666;51.626;7.530;2023-05-29T15:14:41;19.50;95.50
13203;DHT22;6666;51.626;7.530;2023-05-29T15:17:09;19.50;94.50
13203;DHT22;6666;51.626;7.530;2023-05-29T15:19:37;19.30;94.30
13203;DHT22;6666;51.626;7.530;2023-05-29T15:22:05;19.50;94.60
13203;DHT22;6666;51.626;7.530;2023-05-29T15:24:35;19.40;94.70
13203;DHT22;6666;51.626;7.530;2023-05-29T15:27:03;19.30;94.90
13203;DHT22;6666;51.626;7.530;2023-05-29T15:29:33;19.40;94.90
13203;DHT22;6666;51.626;7.530;2023-05-29T15:32:03;19.30;95.10
13203;DHT22;6666;51.626;7.530;2023-05-29T15:34:31;19.40;94.30
13203;DHT22;6666;51.626;7.530;2023-05-29T15:37:00;19.40;94.30
13203;DHT22;6666;51.626;7.530;2023-05-29T15:39:28;19.20;93.50
13203;DHT22;6666;51.626;7.530;2023-05-29T15:41:57;19.20;92.80
13203;DHT22;6666;51.626;7.530;2023-05-29T15:44:25;19.20;92.90
13203;DHT22;6666;51.626;7.530;2023-05-29T15:46:53;19.30;92.40
13203;DHT22;6666;51.626;7.530;2023-05-29T15:49:23;19.50;92.70
13203;DHT22;6666;51.626;7.530;2023-05-29T15:51:51;19.80;93.10
13203;DHT22;6666;51.626;7.530;2023-05-29T15:54:19;19.60;92.50
13203;DHT22;6666;51.626;7.530;2023-05-29T15:56:48;19.50;92.30
13203;DHT22;6666;51.626;7.530;2023-05-29T15:59:16;19.40;91.70
13203;DHT22;6666;51.626;7.530;2023-05-29T16:01:44;19.60;92.00
13203;DHT22;6666;51.626;7.530;2023-05-29T16:04:12;19.50;90.70